createdAt,value
2018-06-14T00:02:04.655Z,7.15
2018-06-14T00:04:33.513Z,5.12
2018-06-14T00:07:02.338Z,4.12
2018-06-14T00:09:32.089Z,3.83
2018-06-14T00:12:00.782Z,5.42
2018-06-14T00:14:29.463Z,9.85
2018-06-14T00:16:58.134Z,3.42
2018-06-14T00:19:26.806Z,4.90
2018-06-14T00:21:55.470Z,5.30
2018-06-14T00:24:24.177Z,4.70
2018-06-14T00:26:52.879Z,5.67
2018-06-14T00:29:21.527Z,4.03
2018-06-14T00:31:50.214Z,4.35
2018-06-14T00:34:18.919Z,3.90
2018-06-14T00:36:47.618Z,3.92
2018-06-14T00:39:16.287Z,3.95
2018-06-14T00:41:45.061Z,4.40
2018-06-14T00:44:13.741Z,5.62
2018-06-14T00:46:42.421Z,5.05
2018-06-14T00:49:11.110Z,5.15
2018-06-14T00:51:39.806Z,4.12
2018-06-14T00:54:08.677Z,4.42
2018-06-14T00:56:48.487Z,4.33
2018-06-14T00:59:17.171Z,4.92
2018-06-14T01:01:46.254Z,8.40
2018-06-14T01:04:14.954Z,4.80
2018-06-14T01:06:43.654Z,4.53
2018-06-14T01:09:12.350Z,4.70
2018-06-14T01:11:41.735Z,4.65
2018-06-14T01:14:10.555Z,3.72
2018-06-14T01:16:39.304Z,5.47
2018-06-14T01:19:07.973Z,6.12
2018-06-14T01:21:36.936Z,4.37
2018-06-14T01:24:05.916Z,4.92
2018-06-14T01:26:34.843Z,5.25
2018-06-14T01:29:03.617Z,4.65
2018-06-14T01:31:32.479Z,6.00
2018-06-14T01:34:01.174Z,8.60
2018-06-14T01:36:29.852Z,4.80
2018-06-14T01:38:58.581Z,3.90
2018-06-14T01:41:27.235Z,5.92
2018-06-14T01:43:55.872Z,5.15
2018-06-14T01:46:24.544Z,6.40
2018-06-14T01:48:53.330Z,3.83
2018-06-14T01:51:22.009Z,4.53
2018-06-14T01:53:50.715Z,5.97
2018-06-14T01:56:19.426Z,5.00
2018-06-14T01:58:48.257Z,5.72
2018-06-14T02:01:16.929Z,6.30
2018-06-14T02:03:45.711Z,4.58
2018-06-14T02:06:14.434Z,4.08
2018-06-14T02:08:43.144Z,5.08
2018-06-14T02:11:11.891Z,3.72
2018-06-14T02:13:40.904Z,4.17
2018-06-14T02:16:10.330Z,6.45
2018-06-14T02:18:40.947Z,3.70
2018-06-14T02:21:11.902Z,4.72
2018-06-14T02:23:40.582Z,4.65
2018-06-14T02:26:09.387Z,5.62
2018-06-14T02:28:38.185Z,4.40
2018-06-14T02:31:06.969Z,8.85
2018-06-14T02:33:35.820Z,4.33
2018-06-14T02:36:04.718Z,4.45
2018-06-14T02:38:33.491Z,4.42
2018-06-14T02:41:02.344Z,3.70
2018-06-14T02:43:31.497Z,4.37
2018-06-14T02:46:00.226Z,4.22
2018-06-14T02:48:28.899Z,4.50
2018-06-14T02:50:57.592Z,4.42
2018-06-14T02:53:26.299Z,4.67
2018-06-14T02:55:55.004Z,4.20
2018-06-14T02:58:23.695Z,4.37
2018-06-14T03:00:52.342Z,4.20
2018-06-14T03:03:21.026Z,4.40
2018-06-14T03:05:49.706Z,4.42
2018-06-14T03:08:18.367Z,5.17
2018-06-14T03:10:47.035Z,4.62
2018-06-14T03:13:15.371Z,4.30
2018-06-14T03:15:44.070Z,4.08
2018-06-14T03:18:12.783Z,4.50
2018-06-14T03:20:41.519Z,5.50
2018-06-14T03:23:10.344Z,4.80
2018-06-14T03:25:39.197Z,4.67
2018-06-14T03:28:07.988Z,8.55
2018-06-14T03:30:36.824Z,6.87
2018-06-14T03:33:05.604Z,6.70
2018-06-14T03:35:34.452Z,3.83
2018-06-14T03:38:03.346Z,4.55
2018-06-14T03:40:32.168Z,4.60
2018-06-14T03:43:00.929Z,5.42
2018-06-14T03:45:30.426Z,8.13
2018-06-14T03:47:59.147Z,6.37
2018-06-14T03:50:27.781Z,4.40
2018-06-14T03:52:56.531Z,4.75
2018-06-14T03:55:32.850Z,3.62
2018-06-14T03:58:01.595Z,3.67
2018-06-14T04:00:30.399Z,6.97
2018-06-14T04:02:59.062Z,6.03
2018-06-14T04:05:27.778Z,4.58
2018-06-14T04:07:56.449Z,4.05
2018-06-14T04:10:25.232Z,5.10
2018-06-14T04:12:54.801Z,5.15
2018-06-14T04:15:23.527Z,4.70
2018-06-14T04:17:58.092Z,4.85
2018-06-14T04:20:27.016Z,3.80
2018-06-14T04:22:55.666Z,4.70
2018-06-14T04:25:24.335Z,6.10
2018-06-14T04:27:52.986Z,4.50
2018-06-14T04:30:21.699Z,5.05
2018-06-14T04:32:50.369Z,4.92
2018-06-14T04:35:19.044Z,4.00
2018-06-14T04:37:47.723Z,6.45
2018-06-14T04:40:16.358Z,3.40
2018-06-14T04:42:45.062Z,6.62
2018-06-14T04:45:13.699Z,3.60
2018-06-14T04:47:42.350Z,4.08
2018-06-14T04:50:11.001Z,4.12
2018-06-14T04:52:39.787Z,4.37
2018-06-14T04:55:08.550Z,6.33
2018-06-14T04:57:37.271Z,6.12
2018-06-14T05:00:08.470Z,3.95
2018-06-14T05:02:37.227Z,4.87
2018-06-14T05:05:06.858Z,5.60
2018-06-14T05:07:36.208Z,4.53
2018-06-14T05:10:05.002Z,3.85
2018-06-14T05:12:33.790Z,6.33
2018-06-14T05:15:02.670Z,5.62
2018-06-14T05:17:32.007Z,4.50
2018-06-14T05:20:00.666Z,4.80
2018-06-14T05:22:29.368Z,7.17
2018-06-14T05:24:58.021Z,6.72
2018-06-14T05:27:26.727Z,5.35
2018-06-14T05:29:55.446Z,5.35
2018-06-14T05:32:24.173Z,5.62
2018-06-14T05:34:52.818Z,5.85
2018-06-14T05:37:21.592Z,8.23
2018-06-14T05:39:50.259Z,6.12
2018-06-14T05:42:18.968Z,5.85
2018-06-14T05:44:47.600Z,7.08
2018-06-14T05:47:16.256Z,5.50
2018-06-14T05:49:44.930Z,5.47
2018-06-14T05:52:13.559Z,7.33
2018-06-14T05:54:42.237Z,4.67
2018-06-14T05:57:10.941Z,6.10
2018-06-14T05:59:39.689Z,7.85
2018-06-14T06:02:08.432Z,5.12
2018-06-14T06:04:37.174Z,5.17
2018-06-14T06:07:06.069Z,7.40
2018-06-14T06:09:34.986Z,6.55
2018-06-14T06:12:03.776Z,6.17
2018-06-14T06:14:32.540Z,6.03
2018-06-14T06:17:02.281Z,6.42
2018-06-14T06:19:31.030Z,5.65
2018-06-14T06:21:59.747Z,6.08
2018-06-14T06:24:28.386Z,7.50
2018-06-14T06:26:57.069Z,5.75
2018-06-14T06:29:25.725Z,8.83
2018-06-14T06:31:54.433Z,8.10
2018-06-14T06:34:23.167Z,6.67
2018-06-14T06:36:51.804Z,6.00
2018-06-14T06:39:20.491Z,5.80
2018-06-14T06:41:49.160Z,5.78
2018-06-14T06:44:17.858Z,5.27
2018-06-14T06:46:46.494Z,4.90
2018-06-14T06:49:15.155Z,6.80
2018-06-14T06:51:43.803Z,5.37
2018-06-14T06:54:12.478Z,5.35
2018-06-14T06:56:40.789Z,5.83
2018-06-14T06:59:09.512Z,6.37
2018-06-14T07:01:38.251Z,5.67
2018-06-14T07:04:08.865Z,5.90
2018-06-14T07:06:37.601Z,5.40
2018-06-14T07:09:08.746Z,6.45
2018-06-14T07:11:37.481Z,6.13
2018-06-14T07:14:06.292Z,6.22
2018-06-14T07:16:35.165Z,6.10
2018-06-14T07:19:03.959Z,6.75
2018-06-14T07:21:33.072Z,6.77
2018-06-14T07:24:01.751Z,7.60
2018-06-14T07:26:30.518Z,8.63
2018-06-14T07:28:59.203Z,6.17
2018-06-14T07:31:27.843Z,5.70
2018-06-14T07:33:56.639Z,6.47
2018-06-14T07:36:25.312Z,7.55
2018-06-14T07:38:53.960Z,5.60
2018-06-14T07:41:22.630Z,6.85
2018-06-14T07:43:51.282Z,6.00
2018-06-14T07:46:19.969Z,6.80
2018-06-14T07:48:48.640Z,8.03
2018-06-14T07:51:17.311Z,6.33
2018-06-14T07:53:45.938Z,6.40
2018-06-14T07:56:14.627Z,7.77
2018-06-14T07:58:43.261Z,5.30
2018-06-14T08:01:11.956Z,6.77
2018-06-14T08:03:40.682Z,6.87
2018-06-14T08:06:09.485Z,6.10
2018-06-14T08:08:38.202Z,6.27
2018-06-14T08:11:06.535Z,9.33
2018-06-14T08:13:35.341Z,7.00
2018-06-14T08:16:04.058Z,7.57
2018-06-14T08:18:32.918Z,13.40
2018-06-14T08:21:01.670Z,6.93
2018-06-14T08:23:30.392Z,6.10
2018-06-14T08:25:59.058Z,7.07
2018-06-14T08:28:27.985Z,5.50
2018-06-14T08:30:56.624Z,5.23
2018-06-14T08:33:25.245Z,8.03
2018-06-14T08:35:53.866Z,5.90
2018-06-14T08:38:22.504Z,4.97
2018-06-14T08:40:51.126Z,6.13
2018-06-14T08:43:19.749Z,5.93
2018-06-14T08:45:48.424Z,5.03
2018-06-14T08:48:17.072Z,4.47
2018-06-14T08:50:45.732Z,7.10
2018-06-14T08:53:14.378Z,4.93
2018-06-14T08:55:43.074Z,8.40
2018-06-14T08:58:11.715Z,7.30
2018-06-14T09:00:40.384Z,5.63
2018-06-14T09:03:09.153Z,5.40
2018-06-14T09:05:37.839Z,5.50
2018-06-14T09:08:06.934Z,5.47
2018-06-14T09:10:35.617Z,5.57
2018-06-14T09:13:04.388Z,6.03
2018-06-14T09:15:33.191Z,5.97
2018-06-14T09:18:01.941Z,5.23
2018-06-14T09:20:30.666Z,8.03
2018-06-14T09:22:59.331Z,5.47
2018-06-14T09:25:28.023Z,6.83
2018-06-14T09:27:56.663Z,7.00
2018-06-14T09:30:25.381Z,5.73
2018-06-14T09:32:54.170Z,7.20
2018-06-14T09:35:22.881Z,5.07
2018-06-14T09:37:51.546Z,4.97
2018-06-14T09:40:20.252Z,5.80
2018-06-14T09:42:48.876Z,6.63
2018-06-14T09:45:17.545Z,6.03
2018-06-14T09:47:46.194Z,7.93
2018-06-14T09:50:14.961Z,5.23
2018-06-14T09:52:43.600Z,5.30
2018-06-14T09:55:12.323Z,8.93
2018-06-14T09:57:41.153Z,5.50
2018-06-14T10:00:09.859Z,7.00
2018-06-14T10:02:38.600Z,8.13
2018-06-14T10:05:07.524Z,9.00
2018-06-14T10:07:36.332Z,7.67
2018-06-14T10:10:05.074Z,7.50
2018-06-14T10:12:35.374Z,5.97
2018-06-14T10:15:05.125Z,5.83
2018-06-14T10:17:33.880Z,8.30
2018-06-14T10:20:02.638Z,7.47
2018-06-14T10:22:31.323Z,6.37
2018-06-14T10:25:00.009Z,6.17
2018-06-14T10:27:28.696Z,5.63
2018-06-14T10:29:57.319Z,8.27
2018-06-14T10:32:25.970Z,7.53
2018-06-14T10:34:54.622Z,6.30
2018-06-14T10:37:23.254Z,9.67
2018-06-14T10:39:51.887Z,7.37
2018-06-14T10:42:20.522Z,5.97
2018-06-14T10:44:49.213Z,6.80
2018-06-14T10:47:18.047Z,7.33
2018-06-14T10:49:46.690Z,6.40
2018-06-14T10:52:15.452Z,6.97
2018-06-14T10:54:44.059Z,7.20
2018-06-14T10:57:12.740Z,7.67
2018-06-14T10:59:41.457Z,6.57
2018-06-14T11:02:10.195Z,10.63
2018-06-14T11:04:38.955Z,9.00
2018-06-14T11:07:07.682Z,8.80
2018-06-14T11:09:36.439Z,8.90
2018-06-14T11:12:05.232Z,10.53
2018-06-14T11:14:34.008Z,10.30
2018-06-14T11:17:02.734Z,10.43
2018-06-14T11:19:31.569Z,11.43
2018-06-14T11:22:00.602Z,11.10
2018-06-14T11:24:29.264Z,11.70
2018-06-14T11:26:57.854Z,10.73
2018-06-14T11:29:26.482Z,13.47
2018-06-14T11:31:55.163Z,10.30
2018-06-14T11:34:23.821Z,11.33
2018-06-14T11:36:52.562Z,8.80
2018-06-14T11:39:21.187Z,12.40
2018-06-14T11:41:49.850Z,9.63
2018-06-14T11:44:18.452Z,12.07
2018-06-14T11:46:47.110Z,11.43
2018-06-14T11:49:15.753Z,13.43
2018-06-14T11:51:44.525Z,11.03
2018-06-14T11:54:13.203Z,10.90
2018-06-14T11:56:41.903Z,15.10
2018-06-14T11:59:10.571Z,15.07
2018-06-14T12:01:39.328Z,15.73
2018-06-14T12:04:08.107Z,13.67
2018-06-14T12:06:36.814Z,12.90
2018-06-14T12:09:06.722Z,13.70
2018-06-14T12:11:35.037Z,12.90
2018-06-14T12:14:04.063Z,14.17
2018-06-14T12:16:32.848Z,14.60
2018-06-14T12:19:01.588Z,16.50
2018-06-14T12:21:30.919Z,16.60
2018-06-14T12:23:59.567Z,14.57
2018-06-14T12:26:28.234Z,15.13
2018-06-14T12:28:56.876Z,14.40
2018-06-14T12:31:25.573Z,11.33
2018-06-14T12:33:54.248Z,15.50
2018-06-14T12:36:22.898Z,14.07
2018-06-14T12:38:51.530Z,12.80
2018-06-14T12:41:20.163Z,14.57
2018-06-14T12:43:48.807Z,12.70
2018-06-14T12:46:17.489Z,13.90
2018-06-14T12:48:46.118Z,13.10
2018-06-14T12:51:14.807Z,13.47
2018-06-14T12:53:43.472Z,13.70
2018-06-14T12:56:12.175Z,11.60
2018-06-14T12:58:40.931Z,11.77
2018-06-14T13:01:09.661Z,12.30
2018-06-14T13:03:38.412Z,11.60
2018-06-14T13:06:07.107Z,12.00
2018-06-14T13:08:35.863Z,14.27
2018-06-14T13:11:04.745Z,13.50
2018-06-14T13:13:33.574Z,13.03
2018-06-14T13:16:02.323Z,11.53
2018-06-14T13:18:31.007Z,11.63
2018-06-14T13:20:59.745Z,11.20
2018-06-14T13:23:28.380Z,13.37
2018-06-14T13:25:57.160Z,12.60
2018-06-14T13:28:25.852Z,13.50
2018-06-14T13:30:54.539Z,13.40
2018-06-14T13:33:23.189Z,14.23
2018-06-14T13:35:51.850Z,14.27
2018-06-14T13:38:20.516Z,12.00
2018-06-14T13:40:49.167Z,12.30
2018-06-14T13:43:17.918Z,13.00
2018-06-14T13:45:46.606Z,11.70
2018-06-14T13:48:14.894Z,13.60
2018-06-14T13:50:43.600Z,13.83
2018-06-14T13:53:12.391Z,13.40
2018-06-14T13:55:41.042Z,14.83
2018-06-14T13:58:09.782Z,12.20
2018-06-14T14:00:38.499Z,11.67
2018-06-14T14:03:07.180Z,12.00
2018-06-14T14:05:36.017Z,12.87
2018-06-14T14:08:04.830Z,12.27
2018-06-14T14:10:33.784Z,13.37
2018-06-14T14:13:02.504Z,10.47
2018-06-14T14:15:33.379Z,10.53
2018-06-14T14:18:02.085Z,11.43
2018-06-14T14:20:30.765Z,10.70
2018-06-14T14:22:59.432Z,12.70
2018-06-14T14:25:28.079Z,10.30
2018-06-14T14:27:56.832Z,10.13
2018-06-14T14:30:25.465Z,9.87
2018-06-14T14:32:54.215Z,9.67
2018-06-14T14:35:22.874Z,9.80
2018-06-14T14:37:51.566Z,11.43
2018-06-14T14:40:20.251Z,10.77
2018-06-14T14:42:48.927Z,14.47
2018-06-14T14:45:17.582Z,9.57
2018-06-14T14:47:46.262Z,11.73
2018-06-14T14:50:14.957Z,9.17
2018-06-14T14:52:43.627Z,10.37
2018-06-14T14:55:12.326Z,10.37
2018-06-14T14:57:41.038Z,8.70
2018-06-14T15:00:09.765Z,10.37
2018-06-14T15:02:38.727Z,8.97
2018-06-14T15:05:07.461Z,9.40
2018-06-14T15:07:36.165Z,9.23
2018-06-14T15:10:04.940Z,10.10
2018-06-14T15:12:33.967Z,9.27
2018-06-14T15:15:02.736Z,9.33
2018-06-14T15:17:32.345Z,9.00
2018-06-14T15:20:01.049Z,8.70
2018-06-14T15:22:29.907Z,9.27
2018-06-14T15:24:58.605Z,10.20
2018-06-14T15:27:27.300Z,9.13
2018-06-14T15:29:55.935Z,8.97
2018-06-14T15:32:24.558Z,7.80
2018-06-14T15:34:53.213Z,7.43
2018-06-14T15:37:21.879Z,10.50
2018-06-14T15:39:50.548Z,7.87
2018-06-14T15:42:19.181Z,8.40
2018-06-14T15:44:47.857Z,10.53
2018-06-14T15:47:16.526Z,8.93
2018-06-14T15:49:45.182Z,11.97
2018-06-14T15:52:13.883Z,8.53
2018-06-14T15:54:42.645Z,7.10
2018-06-14T15:57:11.323Z,11.70
2018-06-14T15:59:40.111Z,6.57
2018-06-14T16:02:08.832Z,6.40
2018-06-14T16:04:37.695Z,6.57
2018-06-14T16:07:06.484Z,6.47
2018-06-14T16:09:35.276Z,6.70
2018-06-14T16:12:04.063Z,8.37
2018-06-14T16:14:32.742Z,7.50
2018-06-14T16:17:01.449Z,8.13
2018-06-14T16:19:30.161Z,6.67
2018-06-14T16:21:58.793Z,9.20
2018-06-14T16:24:27.427Z,9.50
2018-06-14T16:26:56.082Z,9.33
2018-06-14T16:29:24.753Z,9.13
2018-06-14T16:31:53.394Z,7.90
2018-06-14T16:34:22.037Z,8.23
2018-06-14T16:36:50.650Z,7.43
2018-06-14T16:39:19.309Z,7.10
2018-06-14T16:41:47.915Z,6.50
2018-06-14T16:44:16.523Z,8.40
2018-06-14T16:46:45.144Z,6.90
2018-06-14T16:49:13.796Z,6.50
2018-06-14T16:51:42.498Z,7.90
2018-06-14T16:54:11.170Z,6.33
2018-06-14T16:56:39.931Z,7.10
2018-06-14T16:59:08.704Z,6.37
2018-06-14T17:01:37.382Z,6.87
2018-06-14T17:04:06.318Z,5.83
2018-06-14T17:06:35.012Z,6.97
2018-06-14T17:09:04.523Z,7.20
2018-06-14T17:11:33.211Z,6.20
2018-06-14T17:14:01.920Z,7.77
2018-06-14T17:16:30.625Z,7.20
2018-06-14T17:18:59.313Z,10.20
2018-06-14T17:21:28.325Z,7.00
2018-06-14T17:23:56.993Z,6.97
2018-06-14T17:26:25.678Z,6.43
2018-06-14T17:28:54.300Z,8.30
2018-06-14T17:31:23.147Z,6.20
2018-06-14T17:33:51.930Z,5.53
2018-06-14T17:36:20.628Z,6.23
2018-06-14T17:38:49.403Z,7.83
2018-06-14T17:41:18.794Z,7.00
2018-06-14T17:43:47.753Z,7.47
2018-06-14T17:46:16.167Z,5.97
2018-06-14T17:48:44.923Z,6.50
2018-06-14T17:51:13.817Z,8.93
2018-06-14T17:53:42.569Z,7.07
2018-06-14T17:56:11.309Z,7.77
2018-06-14T17:58:40.024Z,6.03
2018-06-14T18:01:08.809Z,5.67
2018-06-14T18:03:37.596Z,5.40
2018-06-14T18:06:06.994Z,5.60
2018-06-14T18:08:35.486Z,5.77
2018-06-14T18:11:04.560Z,5.13
2018-06-14T18:13:33.387Z,6.30
2018-06-14T18:16:02.176Z,5.07
2018-06-14T18:18:31.004Z,5.40
2018-06-14T18:20:59.871Z,5.40
2018-06-14T18:23:28.610Z,5.37
2018-06-14T18:25:57.310Z,7.40
2018-06-14T18:28:26.103Z,5.33
2018-06-14T18:31:00.190Z,5.33
2018-06-14T18:33:28.994Z,6.10
2018-06-14T18:35:57.659Z,6.23
2018-06-14T18:38:26.314Z,5.90
2018-06-14T18:40:55.012Z,5.43
2018-06-14T18:43:23.713Z,6.37
2018-06-14T18:45:52.450Z,7.40
2018-06-14T18:48:21.187Z,6.20
2018-06-14T18:50:49.865Z,6.80
2018-06-14T18:53:18.581Z,5.77
2018-06-14T18:55:47.259Z,5.90
2018-06-14T18:58:15.923Z,5.90
2018-06-14T19:00:47.150Z,6.50
2018-06-14T19:03:15.801Z,6.33
2018-06-14T19:05:44.458Z,6.10
2018-06-14T19:08:14.178Z,5.77
2018-06-14T19:10:42.839Z,5.87
2018-06-14T19:13:11.538Z,6.23
2018-06-14T19:15:40.295Z,6.60
2018-06-14T19:18:09.022Z,7.10
2018-06-14T19:20:37.852Z,6.70
2018-06-14T19:23:06.938Z,7.22
2018-06-14T19:25:35.736Z,6.60
2018-06-14T19:28:04.740Z,7.33
2018-06-14T19:30:33.635Z,7.63
2018-06-14T19:33:03.125Z,8.47
2018-06-14T19:35:32.180Z,9.43
2018-06-14T19:38:01.967Z,10.30
2018-06-14T19:40:30.649Z,10.58
2018-06-14T19:42:59.442Z,9.53
2018-06-14T19:45:28.168Z,10.63
2018-06-14T19:47:56.879Z,10.53
2018-06-14T19:50:25.562Z,11.50
2018-06-14T19:52:54.283Z,11.55
2018-06-14T19:55:22.968Z,11.90
2018-06-14T19:57:51.622Z,11.88
2018-06-14T20:00:20.398Z,11.03
2018-06-14T20:02:49.158Z,12.10
2018-06-14T20:05:17.850Z,10.08
2018-06-14T20:07:48.315Z,11.10
2018-06-14T20:10:16.979Z,11.85
2018-06-14T20:12:45.753Z,10.65
2018-06-14T20:15:14.505Z,13.62
2018-06-14T20:17:43.273Z,13.38
2018-06-14T20:20:11.994Z,13.50
2018-06-14T20:22:40.691Z,14.47
2018-06-14T20:25:09.867Z,13.00
2018-06-14T20:27:38.743Z,12.85
2018-06-14T20:30:07.558Z,13.30
2018-06-14T20:32:36.437Z,13.62
2018-06-14T20:35:05.247Z,15.30
2018-06-14T20:37:34.142Z,12.90
2018-06-14T20:40:03.148Z,12.40
2018-06-14T20:42:32.734Z,13.38
2018-06-14T20:45:01.685Z,13.90
2018-06-14T20:47:30.387Z,12.78
2018-06-14T20:49:59.930Z,14.50
2018-06-14T20:52:29.113Z,14.28
2018-06-14T20:54:58.522Z,14.55
2018-06-14T20:57:27.755Z,15.10
2018-06-14T20:59:57.116Z,14.87
2018-06-14T21:02:26.704Z,13.85
2018-06-14T21:04:56.135Z,13.40
2018-06-14T21:07:25.761Z,16.93
2018-06-14T21:09:55.037Z,14.85
2018-06-14T21:12:24.039Z,14.53
2018-06-14T21:14:53.399Z,15.05
2018-06-14T21:17:22.294Z,15.35
2018-06-14T21:19:51.446Z,15.05
2018-06-14T21:22:20.200Z,14.03
2018-06-14T21:24:49.132Z,16.40
2018-06-14T21:27:18.345Z,14.60
2018-06-14T21:29:48.074Z,16.27
2018-06-14T21:32:16.794Z,14.50
2018-06-14T21:34:46.401Z,14.50
2018-06-14T21:37:15.160Z,15.32
2018-06-14T21:39:43.882Z,15.88
2018-06-14T21:42:13.795Z,16.67
2018-06-14T21:44:42.985Z,16.15
2018-06-14T21:47:11.879Z,16.23
2018-06-14T21:49:40.862Z,17.25
2018-06-14T21:52:09.855Z,18.55
2018-06-14T21:54:38.862Z,18.23
2018-06-14T21:57:07.810Z,18.02
2018-06-14T21:59:37.219Z,20.12
2018-06-14T22:02:06.058Z,20.27
2018-06-14T22:04:34.919Z,18.60
2018-06-14T22:07:03.834Z,17.15
2018-06-14T22:09:32.823Z,17.90
2018-06-14T22:12:02.519Z,19.27
2018-06-14T22:14:31.278Z,19.77
2018-06-14T22:16:59.965Z,21.37
2018-06-14T22:19:28.672Z,21.65
2018-06-14T22:21:57.405Z,19.60
2018-06-14T22:24:26.102Z,21.15
2018-06-14T22:26:54.812Z,19.90
2018-06-14T22:29:23.493Z,21.62
2018-06-14T22:31:52.258Z,20.80
2018-06-14T22:34:32.540Z,21.20
2018-06-14T22:37:01.329Z,22.70
2018-06-14T22:39:30.116Z,22.37
2018-06-14T22:41:58.820Z,20.23
2018-06-14T22:44:27.543Z,21.75
2018-06-14T22:46:56.339Z,22.10
2018-06-14T22:49:25.032Z,21.55
2018-06-14T22:53:01.314Z,23.57
2018-06-14T22:55:30.071Z,23.75
2018-06-14T22:57:58.800Z,21.42
2018-06-14T23:01:36.902Z,24.35
2018-06-14T23:04:06.544Z,24.70
2018-06-14T23:06:35.500Z,22.85
2018-06-14T23:11:19.088Z,20.97
2018-06-14T23:13:47.827Z,22.77
2018-06-14T23:16:16.550Z,24.82
2018-06-14T23:18:45.258Z,24.98
2018-06-14T23:21:13.994Z,22.20
2018-06-14T23:23:42.727Z,22.50
2018-06-14T23:26:11.556Z,25.00
2018-06-14T23:28:40.315Z,20.25
2018-06-14T23:31:09.064Z,21.65
2018-06-14T23:33:37.783Z,23.10
2018-06-14T23:36:06.633Z,25.02
2018-06-14T23:38:35.413Z,21.40
2018-06-14T23:41:04.201Z,25.75
2018-06-14T23:43:33.042Z,22.93
2018-06-14T23:46:01.742Z,24.20
2018-06-14T23:48:30.418Z,24.82
2018-06-14T23:50:59.253Z,24.05
2018-06-14T23:53:27.945Z,24.87
2018-06-14T23:55:56.639Z,24.72
2018-06-14T23:58:25.432Z,27.00
